createdAt,value
2023-05-14T00:00:23.734Z,13.33
2023-05-14T00:02:50.718Z,12.13
2023-05-14T00:05:17.485Z,17.25
2023-05-14T00:07:44.101Z,10.48
2023-05-14T00:10:11.411Z,13.23
2023-05-14T00:12:38.016Z,13.10
2023-05-14T00:15:05.055Z,9.90
2023-05-14T00:17:31.689Z,14.48
2023-05-14T00:19:59.610Z,11.00
2023-05-14T00:22:26.168Z,12.38
2023-05-14T00:27:47.104Z,9.48
2023-05-14T00:30:13.817Z,13.50
2023-05-14T00:32:40.625Z,9.15
2023-05-14T00:35:41.363Z,12.32
2023-05-14T00:38:08.088Z,20.33
2023-05-14T00:40:34.829Z,11.63
2023-05-14T00:43:01.777Z,10.73
2023-05-14T00:45:28.577Z,9.82
2023-05-14T00:47:55.752Z,10.90
2023-05-14T00:50:23.290Z,13.33
2023-05-14T00:52:50.109Z,10.23
2023-05-14T00:58:12.918Z,11.75
2023-05-14T01:00:40.854Z,12.00
2023-05-14T01:03:08.541Z,10.30
2023-05-14T01:05:54.040Z,11.98
2023-05-14T01:08:46.739Z,13.23
2023-05-14T01:11:26.464Z,16.33
2023-05-14T01:14:21.527Z,11.23
2023-05-14T01:16:52.433Z,12.50
2023-05-14T01:19:33.670Z,11.25
2023-05-14T01:22:00.266Z,15.15
2023-05-14T01:24:26.852Z,13.20
2023-05-14T01:26:58.240Z,14.63
2023-05-14T01:29:29.107Z,16.03
2023-05-14T01:31:57.979Z,11.32
2023-05-14T01:34:28.431Z,15.02
2023-05-14T01:36:57.285Z,13.73
2023-05-14T01:39:27.804Z,15.07
2023-05-14T01:41:55.814Z,10.73
2023-05-14T01:44:22.644Z,12.82
2023-05-14T01:46:49.174Z,17.38
2023-05-14T01:49:18.121Z,17.35
2023-05-14T01:51:44.951Z,12.93
2023-05-14T01:54:11.945Z,15.07
2023-05-14T01:56:38.545Z,11.30
2023-05-14T01:59:05.252Z,16.45
2023-05-14T02:01:32.305Z,16.70
2023-05-14T02:03:58.944Z,16.10
2023-05-14T02:06:25.710Z,8.93
2023-05-14T02:08:52.325Z,14.02
2023-05-14T02:11:18.918Z,11.35
2023-05-14T02:13:45.423Z,15.63
2023-05-14T02:16:12.226Z,14.45
2023-05-14T02:18:38.841Z,10.67
2023-05-14T02:21:05.712Z,13.40
2023-05-14T02:23:40.971Z,13.05
2023-05-14T02:26:11.503Z,12.32
2023-05-14T02:28:38.242Z,15.77
2023-05-14T02:31:05.001Z,14.60
2023-05-14T02:33:31.710Z,17.02
2023-05-14T02:35:58.408Z,14.95
2023-05-14T02:38:27.061Z,12.75
2023-05-14T02:40:53.807Z,12.15
2023-05-14T02:43:20.442Z,10.67
2023-05-14T02:45:47.476Z,14.35
2023-05-14T02:48:14.258Z,14.75
2023-05-14T02:50:40.916Z,14.80
2023-05-14T02:53:08.184Z,15.43
2023-05-14T02:55:35.617Z,12.40
2023-05-14T02:58:02.430Z,17.58
2023-05-14T03:00:29.447Z,11.30
2023-05-14T03:02:56.562Z,20.85
2023-05-14T03:05:24.103Z,14.63
2023-05-14T03:07:53.674Z,15.47
2023-05-14T03:10:20.610Z,14.00
2023-05-14T03:12:47.726Z,13.55
2023-05-14T03:15:14.923Z,13.63
2023-05-14T03:17:41.696Z,13.70
2023-05-14T03:23:02.840Z,16.17
2023-05-14T03:25:29.440Z,13.45
2023-05-14T03:27:56.117Z,14.57
2023-05-14T03:30:23.113Z,13.70
2023-05-14T03:32:50.480Z,9.77
2023-05-14T03:35:17.175Z,9.38
2023-05-14T03:37:43.909Z,15.70
2023-05-14T03:40:11.156Z,15.00
2023-05-14T03:42:37.724Z,13.00
2023-05-14T03:45:04.570Z,8.87
2023-05-14T03:47:31.295Z,14.63
2023-05-14T03:49:58.814Z,16.35
2023-05-14T03:52:25.512Z,13.23
2023-05-14T03:54:52.070Z,12.98
2023-05-14T03:57:18.599Z,16.10
2023-05-14T03:59:45.271Z,15.20
2023-05-14T04:02:11.840Z,12.82
2023-05-14T04:04:38.812Z,19.20
2023-05-14T04:07:05.368Z,11.68
2023-05-14T04:09:32.204Z,12.90
2023-05-14T04:11:58.844Z,14.00
2023-05-14T04:14:25.519Z,12.75
2023-05-14T04:16:52.223Z,10.35
2023-05-14T04:19:19.260Z,11.82
2023-05-14T04:21:45.893Z,10.97
2023-05-14T04:24:12.673Z,13.65
2023-05-14T04:26:39.236Z,15.77
2023-05-14T04:29:05.822Z,16.02
2023-05-14T04:31:33.864Z,16.83
2023-05-14T04:34:00.695Z,14.07
2023-05-14T04:36:27.449Z,11.10
2023-05-14T04:38:54.045Z,13.23
2023-05-14T04:41:21.142Z,19.63
2023-05-14T04:43:50.384Z,9.20
2023-05-14T04:46:17.070Z,14.23
2023-05-14T04:48:43.652Z,8.55
2023-05-14T04:51:10.307Z,11.50
2023-05-14T04:53:36.968Z,9.30
2023-05-14T04:56:03.702Z,10.93
2023-05-14T04:58:34.523Z,13.40
2023-05-14T05:01:02.957Z,8.48
2023-05-14T05:03:29.841Z,13.95
2023-05-14T05:05:56.439Z,12.05
2023-05-14T05:08:23.394Z,10.07
2023-05-14T05:10:49.929Z,15.57
2023-05-14T05:13:17.218Z,12.25
2023-05-14T05:15:44.279Z,13.43
2023-05-14T05:18:10.883Z,9.15
2023-05-14T05:20:37.562Z,12.27
2023-05-14T05:23:04.173Z,10.23
2023-05-14T05:25:30.977Z,8.80
2023-05-14T05:27:57.570Z,17.73
2023-05-14T05:30:24.407Z,18.38
2023-05-14T05:32:51.129Z,10.18
2023-05-14T05:35:17.699Z,14.20
2023-05-14T05:37:45.305Z,7.95
2023-05-14T05:40:14.084Z,13.30
2023-05-14T05:42:41.581Z,10.82
2023-05-14T05:45:09.068Z,10.52
2023-05-14T05:47:36.255Z,16.87
2023-05-14T05:50:03.186Z,8.88
2023-05-14T05:52:29.930Z,9.27
2023-05-14T05:54:56.517Z,12.45
2023-05-14T05:57:26.234Z,7.43
2023-05-14T05:59:53.331Z,8.73
2023-05-14T06:02:20.478Z,7.97
2023-05-14T06:04:47.060Z,9.18
2023-05-14T06:07:13.839Z,8.15
2023-05-14T06:09:40.442Z,8.18
2023-05-14T06:12:07.337Z,10.53
2023-05-14T06:14:33.894Z,10.43
2023-05-14T06:17:01.015Z,9.05
2023-05-14T06:19:27.615Z,8.35
2023-05-14T06:24:52.794Z,11.77
2023-05-14T06:27:19.367Z,10.45
2023-05-14T06:29:46.055Z,13.80
2023-05-14T06:32:15.586Z,7.18
2023-05-14T06:34:42.847Z,10.70
2023-05-14T06:37:11.617Z,9.00
2023-05-14T06:39:38.492Z,14.80
2023-05-14T06:42:05.493Z,8.43
2023-05-14T06:44:32.639Z,9.65
2023-05-14T06:46:59.284Z,7.03
2023-05-14T06:49:26.065Z,6.43
2023-05-14T06:51:52.821Z,12.35
2023-05-14T06:54:20.754Z,14.50
2023-05-14T06:56:47.589Z,8.75
2023-05-14T06:59:14.062Z,8.07
2023-05-14T07:01:41.054Z,12.27
2023-05-14T07:04:08.027Z,6.88
2023-05-14T07:06:34.891Z,9.05
2023-05-14T07:09:01.905Z,6.82
2023-05-14T07:11:28.546Z,10.07
2023-05-14T07:13:55.430Z,9.77
2023-05-14T07:16:22.150Z,9.68
2023-05-14T07:18:48.806Z,7.13
2023-05-14T07:21:15.490Z,10.00
2023-05-14T07:23:42.107Z,7.28
2023-05-14T07:26:09.008Z,6.07
2023-05-14T07:28:35.973Z,5.28
2023-05-14T07:31:05.259Z,4.47
2023-05-14T07:33:31.949Z,9.38
2023-05-14T07:35:58.604Z,7.82
2023-05-14T07:38:25.567Z,8.30
2023-05-14T07:40:52.158Z,5.90
2023-05-14T07:43:18.706Z,6.45
2023-05-14T07:45:45.698Z,6.30
2023-05-14T07:48:12.711Z,8.18
2023-05-14T07:50:39.357Z,7.55
2023-05-14T07:53:05.912Z,7.07
2023-05-14T07:55:32.491Z,12.82
2023-05-14T07:57:59.577Z,7.13
2023-05-14T08:00:26.249Z,13.75
2023-05-14T08:02:53.136Z,9.43
2023-05-14T08:05:20.026Z,9.80
2023-05-14T08:07:46.802Z,10.20
2023-05-14T08:10:13.422Z,9.07
2023-05-14T08:12:40.317Z,6.68
2023-05-14T08:15:08.027Z,9.55
2023-05-14T08:17:34.607Z,4.50
2023-05-14T08:22:57.233Z,9.77
2023-05-14T08:25:24.440Z,10.63
2023-05-14T08:27:51.093Z,6.55
2023-05-14T08:30:18.211Z,9.90
2023-05-14T08:32:44.915Z,7.07
2023-05-14T08:38:05.682Z,6.40
2023-05-14T08:40:32.488Z,7.30
2023-05-14T08:43:00.924Z,10.63
2023-05-14T08:45:34.137Z,5.38
2023-05-14T08:48:05.890Z,8.35
2023-05-14T08:50:32.781Z,9.93
2023-05-14T08:52:59.501Z,8.90
2023-05-14T08:55:27.549Z,9.00
2023-05-14T08:57:54.476Z,7.82
2023-05-14T09:00:21.240Z,6.47
2023-05-14T09:02:48.545Z,6.80
2023-05-14T09:05:17.417Z,5.75
2023-05-14T09:07:44.304Z,5.65
2023-05-14T09:10:11.825Z,6.10
2023-05-14T09:12:38.610Z,6.07
2023-05-14T09:15:06.422Z,5.80
2023-05-14T09:17:33.762Z,8.60
2023-05-14T09:22:54.966Z,8.82
2023-05-14T09:25:27.684Z,10.20
2023-05-14T09:27:57.315Z,12.05
2023-05-14T09:30:26.550Z,7.70
2023-05-14T09:32:55.205Z,4.78
2023-05-14T09:35:24.089Z,7.68
2023-05-14T09:37:55.172Z,8.15
2023-05-14T09:40:24.670Z,8.40
2023-05-14T09:42:51.823Z,9.82
2023-05-14T09:48:14.315Z,4.47
2023-05-14T09:50:44.838Z,6.30
2023-05-14T09:53:12.065Z,5.88
2023-05-14T09:55:39.237Z,6.30
2023-05-14T09:58:06.201Z,8.27
2023-05-14T10:00:33.226Z,9.85
2023-05-14T10:03:06.944Z,7.88
2023-05-14T10:05:37.424Z,6.55
2023-05-14T10:08:10.332Z,8.65
2023-05-14T10:10:38.267Z,9.43
2023-05-14T10:13:09.589Z,7.40
2023-05-14T10:15:55.518Z,7.40
2023-05-14T10:18:24.439Z,6.72
2023-05-14T10:21:04.200Z,7.97
2023-05-14T10:23:31.158Z,6.63
2023-05-14T10:25:59.090Z,7.65
2023-05-14T10:28:26.572Z,6.47
2023-05-14T10:30:54.342Z,7.07
2023-05-14T10:33:21.018Z,4.68
2023-05-14T10:35:59.871Z,9.13
2023-05-14T10:38:32.366Z,11.52
2023-05-14T10:41:10.320Z,6.47
2023-05-14T10:43:38.851Z,9.63
2023-05-14T10:46:06.433Z,7.30
2023-05-14T10:48:34.085Z,8.07
2023-05-14T10:51:01.590Z,7.60
2023-05-14T10:53:35.219Z,5.43
2023-05-14T10:56:06.116Z,6.00
2023-05-14T10:58:36.383Z,5.40
2023-05-14T11:01:03.210Z,5.63
2023-05-14T11:03:32.232Z,6.68
2023-05-14T11:06:08.470Z,6.40
2023-05-14T11:08:35.452Z,7.22
2023-05-14T11:11:02.539Z,4.80
2023-05-14T11:13:30.197Z,9.93
2023-05-14T11:16:02.203Z,3.42
2023-05-14T11:18:37.189Z,6.60
2023-05-14T11:21:03.996Z,8.00
2023-05-14T11:23:30.615Z,7.45
2023-05-14T11:26:00.336Z,5.83
2023-05-14T11:28:27.459Z,5.82
2023-05-14T11:30:54.379Z,5.30
2023-05-14T11:33:21.472Z,4.30
2023-05-14T11:35:48.508Z,6.75
2023-05-14T11:38:18.532Z,9.30
2023-05-14T11:40:53.520Z,8.30
2023-05-14T11:43:20.491Z,8.23
2023-05-14T11:45:52.526Z,7.65
2023-05-14T11:48:24.962Z,9.27
2023-05-14T11:50:52.989Z,6.77
2023-05-14T11:53:28.574Z,12.35
2023-05-14T11:55:57.812Z,6.10
2023-05-14T11:58:24.986Z,6.15
2023-05-14T12:00:53.079Z,6.88
2023-05-14T12:03:25.972Z,4.80
2023-05-14T12:06:08.597Z,7.32
2023-05-14T12:08:35.232Z,5.68
2023-05-14T12:11:02.131Z,6.50
2023-05-14T12:13:30.870Z,7.88
2023-05-14T12:16:02.485Z,10.93
2023-05-14T12:18:31.520Z,7.13
2023-05-14T12:21:06.037Z,11.73
2023-05-14T12:23:32.864Z,6.43
2023-05-14T12:26:09.461Z,3.60
2023-05-14T12:28:38.890Z,7.90
2023-05-14T12:31:05.637Z,7.13
2023-05-14T12:33:32.410Z,6.05
2023-05-14T12:36:17.589Z,5.80
2023-05-14T12:38:47.783Z,5.45
2023-05-14T12:41:14.336Z,6.30
2023-05-14T12:43:43.793Z,7.28
2023-05-14T12:46:10.811Z,5.45
2023-05-14T12:48:37.396Z,8.10
2023-05-14T12:51:04.072Z,5.22
2023-05-14T12:53:30.746Z,5.60
2023-05-14T12:55:57.442Z,6.93
2023-05-14T12:58:24.006Z,5.68
2023-05-14T13:00:50.793Z,5.55
2023-05-14T13:03:17.555Z,7.05
2023-05-14T13:05:44.324Z,4.93
2023-05-14T13:08:11.101Z,5.45
2023-05-14T13:10:37.705Z,9.20
2023-05-14T13:13:04.430Z,7.75
2023-05-14T13:15:34.063Z,6.60
2023-05-14T13:18:01.030Z,3.93
2023-05-14T13:20:27.826Z,6.32
2023-05-14T13:22:54.518Z,4.55
2023-05-14T13:25:21.138Z,8.90
2023-05-14T13:27:50.825Z,4.75
2023-05-14T13:30:20.600Z,8.40
2023-05-14T13:32:47.253Z,8.10
2023-05-14T13:35:14.641Z,5.10
2023-05-14T13:37:41.347Z,9.32
2023-05-14T13:40:08.583Z,6.57
2023-05-14T13:42:35.910Z,8.03
2023-05-14T13:45:02.747Z,6.38
2023-05-14T13:47:29.490Z,8.85
2023-05-14T13:49:56.649Z,9.70
2023-05-14T13:52:23.354Z,11.65
2023-05-14T13:54:50.124Z,4.67
2023-05-14T13:57:17.047Z,4.82
2023-05-14T13:59:43.714Z,7.03
2023-05-14T14:02:10.531Z,5.57
2023-05-14T14:04:37.085Z,8.35
2023-05-14T14:07:04.091Z,7.63
2023-05-14T14:09:35.034Z,6.28
2023-05-14T14:12:04.504Z,9.25
2023-05-14T14:14:31.361Z,4.15
2023-05-14T14:16:57.945Z,5.47
2023-05-14T14:19:24.728Z,11.57
2023-05-14T14:24:17.803Z,5.88
2023-05-14T14:26:44.387Z,7.18
2023-05-14T14:29:10.986Z,5.07
2023-05-14T14:31:37.677Z,6.53
2023-05-14T14:34:04.364Z,4.78
2023-05-14T14:36:31.748Z,6.13
2023-05-14T14:38:58.431Z,4.95
2023-05-14T14:41:25.037Z,8.07
2023-05-14T14:43:51.570Z,5.13
2023-05-14T14:46:18.251Z,5.45
2023-05-14T14:48:45.068Z,7.07
2023-05-14T14:51:11.649Z,6.10
2023-05-14T14:53:38.406Z,5.70
2023-05-14T14:56:05.322Z,4.10
2023-05-14T14:58:32.130Z,5.10
2023-05-14T15:00:59.246Z,5.80
2023-05-14T15:03:26.641Z,6.85
2023-05-14T15:05:53.823Z,5.50
2023-05-14T15:08:25.379Z,10.63
2023-05-14T15:10:52.157Z,7.03
2023-05-14T15:13:19.222Z,5.45
2023-05-14T15:15:45.887Z,8.73
2023-05-14T15:18:12.871Z,4.95
2023-05-14T15:23:34.055Z,3.95
2023-05-14T15:26:00.773Z,6.78
2023-05-14T15:28:27.490Z,5.18
2023-05-14T15:30:55.016Z,7.10
2023-05-14T15:33:21.624Z,5.87
2023-05-14T15:35:48.446Z,6.72
2023-05-14T15:38:15.432Z,5.38
2023-05-14T15:40:42.234Z,4.82
2023-05-14T15:43:09.053Z,7.30
2023-05-14T15:45:35.681Z,5.43
2023-05-14T15:48:02.272Z,3.92
2023-05-14T15:50:29.018Z,3.92
2023-05-14T15:52:55.634Z,5.72
2023-05-14T15:58:16.598Z,7.30
2023-05-14T16:00:43.528Z,6.72
2023-05-14T16:03:10.609Z,6.18
2023-05-14T16:08:17.924Z,5.38
2023-05-14T16:10:44.751Z,10.80
2023-05-14T16:13:11.318Z,5.50
2023-05-14T16:15:39.469Z,8.30
2023-05-14T16:18:06.375Z,5.72
2023-05-14T16:20:33.158Z,5.95
2023-05-14T16:22:59.907Z,8.90
2023-05-14T16:25:26.605Z,5.90
2023-05-14T16:27:53.326Z,5.15
2023-05-14T16:30:19.880Z,6.22
2023-05-14T16:32:49.499Z,5.32
2023-05-14T16:35:16.952Z,5.67
2023-05-14T16:37:43.729Z,8.98
2023-05-14T16:40:11.886Z,5.85
2023-05-14T16:42:38.765Z,6.70
2023-05-14T16:45:05.890Z,6.68
2023-05-14T16:47:35.327Z,10.10
2023-05-14T16:50:01.995Z,6.65
2023-05-14T16:52:28.664Z,6.70
2023-05-14T16:54:55.355Z,7.30
2023-05-14T16:57:22.068Z,8.30
2023-05-14T16:59:48.768Z,5.07
2023-05-14T17:02:15.481Z,7.85
2023-05-14T17:04:42.537Z,7.65
2023-05-14T17:07:09.470Z,5.13
2023-05-14T17:09:36.373Z,5.57
2023-05-14T17:12:03.188Z,7.30
2023-05-14T17:14:29.716Z,5.75
2023-05-14T17:16:56.414Z,5.70
2023-05-14T17:19:23.061Z,6.97
2023-05-14T17:21:49.970Z,7.35
2023-05-14T17:24:16.792Z,10.13
2023-05-14T17:26:43.986Z,7.68
2023-05-14T17:29:11.058Z,5.65
2023-05-14T17:31:37.905Z,8.88
2023-05-14T17:34:04.487Z,6.68
2023-05-14T17:36:32.335Z,8.10
2023-05-14T17:38:58.958Z,7.97
2023-05-14T17:41:25.552Z,6.47
2023-05-14T17:43:55.124Z,7.97
2023-05-14T17:46:21.839Z,9.48
2023-05-14T17:48:48.493Z,7.77
2023-05-14T17:51:15.166Z,5.00
2023-05-14T17:53:42.097Z,7.53
2023-05-14T17:56:09.020Z,9.48
2023-05-14T17:58:36.221Z,12.05
2023-05-14T18:01:03.413Z,4.30
2023-05-14T18:03:30.461Z,6.35
2023-05-14T18:05:58.561Z,8.15
2023-05-14T18:08:25.298Z,7.50
2023-05-14T18:10:51.855Z,5.78
2023-05-14T18:13:18.545Z,4.55
2023-05-14T18:15:45.295Z,5.82
2023-05-14T18:18:12.569Z,5.28
2023-05-14T18:20:39.193Z,10.68
2023-05-14T18:23:06.204Z,10.52
2023-05-14T18:25:32.908Z,9.40
2023-05-14T18:27:59.714Z,7.75
2023-05-14T18:30:26.520Z,5.82
2023-05-14T18:32:53.356Z,7.38
2023-05-14T18:35:19.899Z,8.73
2023-05-14T18:37:46.635Z,6.20
2023-05-14T18:40:16.366Z,7.63
2023-05-14T18:42:44.873Z,5.07
2023-05-14T18:45:11.737Z,8.15
2023-05-14T18:47:39.717Z,5.45
2023-05-14T18:50:07.885Z,9.73
2023-05-14T18:52:34.516Z,4.78
2023-05-14T18:55:01.241Z,7.20
2023-05-14T18:57:29.615Z,4.47
2023-05-14T18:59:56.351Z,4.32
2023-05-14T19:02:22.998Z,6.10
2023-05-14T19:04:52.938Z,6.63
2023-05-14T19:07:20.823Z,7.97
2023-05-14T19:09:47.519Z,6.07
2023-05-14T19:12:14.435Z,6.50
2023-05-14T19:14:40.977Z,6.47
2023-05-14T19:17:07.584Z,4.00
2023-05-14T19:19:34.244Z,4.72
2023-05-14T19:22:00.807Z,4.32
2023-05-14T19:24:27.646Z,6.45
2023-05-14T19:26:54.397Z,7.30
2023-05-14T19:29:21.137Z,8.10
2023-05-14T19:31:47.735Z,6.68
2023-05-14T19:34:14.473Z,7.25
2023-05-14T19:36:41.764Z,5.15
2023-05-14T19:39:08.359Z,7.38
2023-05-14T19:41:35.042Z,8.20
2023-05-14T19:44:01.661Z,5.57
2023-05-14T19:46:28.292Z,8.07
2023-05-14T19:48:54.776Z,7.05
2023-05-14T19:51:21.398Z,4.43
2023-05-14T19:53:48.084Z,4.85
2023-05-14T19:56:15.556Z,9.07
2023-05-14T19:58:43.331Z,4.65
2023-05-14T20:01:10.253Z,4.53
2023-05-14T20:03:37.596Z,5.25
2023-05-14T20:06:04.313Z,5.57
2023-05-14T20:08:30.969Z,5.53
2023-05-14T20:10:57.574Z,6.07
2023-05-14T20:13:25.229Z,5.45
2023-05-14T20:15:52.210Z,5.93
2023-05-14T20:18:18.762Z,8.20
2023-05-14T20:20:45.376Z,8.98
2023-05-14T20:23:11.954Z,7.40
2023-05-14T20:25:43.527Z,7.10
2023-05-14T20:28:10.519Z,9.57
2023-05-14T20:30:37.285Z,5.82
2023-05-14T20:33:04.120Z,4.72
2023-05-14T20:35:31.148Z,7.25
2023-05-14T20:37:57.850Z,7.77
2023-05-14T20:40:25.441Z,9.32
2023-05-14T20:42:52.301Z,13.77
2023-05-14T20:45:19.080Z,5.32
2023-05-14T20:47:45.707Z,5.03
2023-05-14T20:50:13.964Z,9.50
2023-05-14T20:52:40.890Z,5.85
2023-05-14T20:55:08.203Z,7.10
2023-05-14T20:57:34.697Z,7.72
2023-05-14T21:00:02.415Z,13.93
2023-05-14T21:02:29.053Z,8.90
2023-05-14T21:05:04.433Z,7.88
2023-05-14T21:07:31.978Z,14.32
2023-05-14T21:09:58.981Z,10.32
2023-05-14T21:12:25.751Z,6.55
2023-05-14T21:14:52.394Z,7.63
2023-05-14T21:17:19.426Z,9.95
2023-05-14T21:19:46.059Z,6.28
2023-05-14T21:22:13.126Z,7.97
2023-05-14T21:24:39.570Z,8.77
2023-05-14T21:27:06.619Z,9.97
2023-05-14T21:29:33.458Z,9.43
2023-05-14T21:32:00.152Z,8.38
2023-05-14T21:34:26.868Z,9.55
2023-05-14T21:36:53.475Z,16.13
2023-05-14T21:39:20.148Z,7.97
2023-05-14T21:41:46.690Z,6.28
2023-05-14T21:44:13.469Z,6.95
2023-05-14T21:46:40.135Z,7.70
2023-05-14T21:49:07.156Z,7.22
2023-05-14T21:51:33.758Z,7.50
2023-05-14T21:54:00.362Z,10.60
2023-05-14T21:56:27.276Z,14.93
2023-05-14T21:58:55.964Z,7.43
2023-05-14T22:01:23.035Z,6.25
2023-05-14T22:03:50.030Z,5.50
2023-05-14T22:06:16.802Z,8.73
2023-05-14T22:08:43.481Z,6.90
2023-05-14T22:11:10.091Z,6.55
2023-05-14T22:13:40.906Z,12.02
2023-05-14T22:16:13.177Z,7.60
2023-05-14T22:18:40.557Z,6.65
2023-05-14T22:21:07.054Z,9.00
2023-05-14T22:23:33.544Z,12.38
2023-05-14T22:26:00.474Z,12.10
2023-05-14T22:28:27.211Z,10.67
2023-05-14T22:30:53.825Z,11.40
2023-05-14T22:33:20.423Z,12.57
2023-05-14T22:35:46.992Z,11.52
2023-05-14T22:38:14.078Z,12.77
2023-05-14T22:40:40.828Z,9.33
2023-05-14T22:43:07.741Z,7.75
2023-05-14T22:45:34.411Z,10.50
2023-05-14T22:48:01.082Z,9.85
2023-05-14T22:50:27.735Z,8.32
2023-05-14T22:52:54.612Z,12.00
2023-05-14T22:55:21.200Z,6.60
2023-05-14T22:57:47.985Z,10.70
2023-05-14T23:00:14.800Z,8.48
2023-05-14T23:02:41.384Z,16.30
2023-05-14T23:05:08.970Z,9.47
2023-05-14T23:07:35.956Z,9.57
2023-05-14T23:10:02.811Z,8.05
2023-05-14T23:12:29.338Z,8.65
2023-05-14T23:14:56.156Z,15.05
2023-05-14T23:17:22.807Z,10.47
2023-05-14T23:19:49.620Z,9.63
2023-05-14T23:22:16.378Z,9.27
2023-05-14T23:24:43.026Z,15.80
2023-05-14T23:27:11.481Z,12.85
2023-05-14T23:29:38.517Z,11.03
2023-05-14T23:32:05.341Z,13.38
2023-05-14T23:34:32.894Z,21.05
2023-05-14T23:36:59.547Z,18.02
2023-05-14T23:39:26.276Z,13.90
2023-05-14T23:41:52.798Z,11.47
2023-05-14T23:44:19.476Z,10.50
2023-05-14T23:46:46.707Z,11.07
2023-05-14T23:49:13.408Z,12.32
2023-05-14T23:51:40.329Z,10.50
2023-05-14T23:54:06.909Z,13.50
2023-05-14T23:56:33.673Z,11.45
2023-05-14T23:59:00.288Z,12.20
